Time;durP1;ratioP1;P1;durP2;ratioP2;P2;SDS_P1;SDS_P2;PMS_P1;PMS_P2;Temp;Humidity;BMP_temperature;BMP_pressure;BME280_temperature;BME280_humidity;BME280_pressure;Samples;Min_cycle;Max_cycle;Signal;HPM_P1;HPM_P2
2021/11/05 00:02:06;;;;;;;49.60;28.23;;;7.50;92.20;;;;;;5055643;28;20254;-87
2021/11/05 00:04:32;;;;;;;43.37;28.50;;;7.50;92.20;;;;;;5037926;28;20298;-87
2021/11/05 00:06:59;;;;;;;48.57;26.80;;;7.50;92.20;;;;;;5055927;28;20233;-87
2021/11/05 00:09:25;;;;;;;43.87;28.20;;;7.50;92.10;;;;;;5037866;28;20172;-87
2021/11/05 00:11:51;;;;;;;48.57;28.33;;;7.50;92.10;;;;;;5056083;28;20171;-87
2021/11/05 00:14:17;;;;;;;50.63;29.53;;;7.50;92.10;;;;;;5037872;28;20176;-87
2021/11/05 00:16:42;;;;;;;41.87;26.67;;;7.50;92.10;;;;;;5055594;28;20684;-87
2021/11/05 00:19:08;;;;;;;42.87;27.27;;;7.40;92.10;;;;;;5037570;28;20204;-87
2021/11/05 00:21:34;;;;;;;47.20;27.50;;;7.40;92.10;;;;;;5038212;28;20190;-87
2021/11/05 00:24:00;;;;;;;46.80;28.17;;;7.40;92.20;;;;;;5037827;28;20613;-87
2021/11/05 00:26:26;;;;;;;46.10;27.93;;;7.40;92.20;;;;;;5055932;28;20184;-87
2021/11/05 00:28:51;;;;;;;45.47;26.23;;;7.40;92.10;;;;;;5037812;28;20172;-88
2021/11/05 00:31:17;;;;;;;40.47;27.17;;;7.40;92.10;;;;;;5038150;28;20263;-87
2021/11/05 00:33:43;;;;;;;45.00;27.93;;;7.50;92.10;;;;;;5037902;28;20274;-87
2021/11/05 00:36:13;;;;;;;43.33;27.43;;;7.50;92.00;;;;;;5037530;28;20200;-87
2021/11/05 00:38:44;;;;;;;49.50;26.73;;;7.40;91.90;;;;;;5037579;28;20168;-87
2021/11/05 00:41:10;;;;;;;48.07;26.90;;;7.50;91.80;;;;;;5054732;28;20179;-87
2021/11/05 00:43:36;;;;;;;45.17;26.10;;;7.50;91.80;;;;;;5037557;28;20230;-87
2021/11/05 00:46:02;;;;;;;41.73;25.50;;;7.50;91.70;;;;;;5037445;28;20196;-87
2021/11/05 00:48:28;;;;;;;40.87;24.10;;;7.50;91.70;;;;;;5037565;28;20267;-87
2021/11/05 00:50:53;;;;;;;38.30;25.50;;;7.50;91.70;;;;;;5055937;28;20688;-87
2021/11/05 00:53:19;;;;;;;41.90;26.43;;;7.60;91.60;;;;;;5037937;28;20175;-87
2021/11/05 00:55:45;;;;;;;45.23;25.77;;;7.70;91.40;;;;;;5037538;28;20192;-87
2021/11/05 00:58:10;;;;;;;47.63;25.50;;;7.60;91.40;;;;;;5054994;28;20242;-87
2021/11/05 01:00:36;;;;;;;40.60;25.67;;;7.60;91.40;;;;;;5037403;28;20600;-87
2021/11/05 01:03:02;;;;;;;38.33;24.63;;;7.60;91.40;;;;;;5037557;28;20617;-87
2021/11/05 01:05:28;;;;;;;42.60;25.07;;;7.70;91.20;;;;;;5055437;28;20196;-87
2021/11/05 01:07:54;;;;;;;41.03;25.10;;;7.70;91.10;;;;;;5037620;28;20172;-87
2021/11/05 01:10:20;;;;;;;40.27;25.87;;;7.70;91.10;;;;;;5055416;28;20191;-87
2021/11/05 01:12:46;;;;;;;37.33;23.53;;;7.70;91.10;;;;;;5037051;28;20168;-87
2021/11/05 01:15:13;;;;;;;36.30;24.00;;;7.70;91.00;;;;;;5037161;28;20180;-87
2021/11/05 01:17:40;;;;;;;35.57;23.30;;;7.70;91.10;;;;;;5037501;28;20195;-87
2021/11/05 01:20:08;;;;;;;36.63;24.50;;;7.70;91.00;;;;;;5055110;28;20172;-87
2021/11/05 01:22:33;;;;;;;36.13;24.13;;;7.70;91.00;;;;;;5037394;28;20694;-87
2021/11/05 01:24:59;;;;;;;30.77;20.70;;;7.80;90.90;;;;;;5037158;28;20192;-87
2021/11/05 01:27:25;;;;;;;40.40;24.00;;;7.70;90.80;;;;;;5037349;28;20254;-87
2021/11/05 01:29:52;;;;;;;31.57;23.20;;;7.80;90.70;;;;;;5037689;28;20168;-87
2021/11/05 01:32:18;;;;;;;32.53;20.90;;;7.80;90.80;;;;;;5054955;28;20164;-87
2021/11/05 01:34:44;;;;;;;30.33;21.63;;;7.80;90.70;;;;;;5055366;28;20172;-87
2021/11/05 01:37:10;;;;;;;30.40;22.47;;;7.80;90.60;;;;;;5036592;28;20268;-87
2021/11/05 01:39:35;;;;;;;35.00;21.77;;;7.80;90.70;;;;;;5036846;28;20211;-87
2021/11/05 01:42:01;;;;;;;27.83;21.10;;;7.80;90.70;;;;;;5036511;28;20203;-87
2021/11/05 01:44:27;;;;;;;37.40;22.13;;;7.80;90.70;;;;;;5036720;28;20202;-87
2021/11/05 01:46:52;;;;;;;29.23;21.80;;;7.80;90.70;;;;;;5055027;28;20211;-87
2021/11/05 01:49:18;;;;;;;32.47;20.40;;;7.90;90.80;;;;;;5037505;28;20546;-87
2021/11/05 01:51:45;;;;;;;29.83;21.77;;;7.90;90.70;;;;;;5037585;28;20200;-87
2021/11/05 01:54:12;;;;;;;34.30;21.20;;;7.90;90.70;;;;;;5040408;28;20243;-87
2021/11/05 01:56:42;;;;;;;31.07;20.47;;;7.90;90.70;;;;;;5058284;28;20196;-87
2021/11/05 01:59:26;;;;;;;34.40;20.87;;;7.90;90.50;;;;;;5040110;28;20172;-87
2021/11/05 02:01:53;;;;;;;33.37;22.00;;;8.00;90.50;;;;;;5040345;28;20262;-87
2021/11/05 02:04:19;;;;;;;30.53;20.70;;;7.90;90.40;;;;;;5040140;28;20245;-87
2021/11/05 02:06:48;;;;;;;29.97;20.77;;;7.90;90.40;;;;;;5057872;28;20605;-87
2021/11/05 02:09:18;;;;;;;33.57;20.00;;;8.00;90.50;;;;;;5040196;28;20255;-87
2021/11/05 02:11:45;;;;;;;29.40;21.23;;;8.00;90.40;;;;;;5040170;28;20221;-87
2021/11/05 02:14:17;;;;;;;29.00;20.10;;;8.00;90.40;;;;;;5039943;28;20648;-87
2021/11/05 02:16:46;;;;;;;33.90;20.87;;;8.00;90.30;;;;;;5040026;28;20306;-87
2021/11/05 02:19:17;;;;;;;29.00;20.47;;;8.00;90.10;;;;;;5040200;28;20601;-87
2021/11/05 02:21:44;;;;;;;31.00;20.93;;;8.10;90.00;;;;;;5040137;28;20187;-87
2021/11/05 02:24:12;;;;;;;26.80;19.20;;;8.10;90.00;;;;;;5057927;28;20188;-87
2021/11/05 02:26:38;;;;;;;24.83;19.23;;;8.10;90.00;;;;;;5039827;28;20683;-87
2021/11/05 02:29:04;;;;;;;31.13;19.27;;;8.10;90.30;;;;;;5039655;28;20172;-87
2021/11/05 02:31:31;;;;;;;25.37;19.00;;;8.00;90.40;;;;;;5039555;28;20184;-87
2021/11/05 02:33:57;;;;;;;30.40;19.80;;;8.00;90.50;;;;;;5039905;28;20180;-87
2021/11/05 02:36:23;;;;;;;29.77;18.87;;;7.90;90.60;;;;;;5057262;28;20667;-87
2021/11/05 02:38:48;;;;;;;25.97;19.10;;;7.90;90.70;;;;;;5039545;28;20263;-87
2021/11/05 02:41:14;;;;;;;25.13;17.60;;;7.90;90.70;;;;;;5039565;28;20682;-87
2021/11/05 02:43:40;;;;;;;31.37;18.00;;;7.90;90.70;;;;;;5057311;28;20192;-87
2021/11/05 02:46:06;;;;;;;24.43;18.00;;;7.90;90.70;;;;;;5039345;28;20643;-87
2021/11/05 02:48:33;;;;;;;27.03;18.50;;;8.00;90.60;;;;;;5057806;28;20629;-87
2021/11/05 02:50:59;;;;;;;31.20;18.77;;;8.00;90.50;;;;;;5057203;28;20168;-87
2021/11/05 02:53:25;;;;;;;31.97;19.43;;;8.00;90.40;;;;;;5039343;28;20176;-87
2021/11/05 02:55:51;;;;;;;22.97;18.23;;;8.00;90.30;;;;;;5057225;28;20188;-87
2021/11/05 02:58:18;;;;;;;27.40;18.67;;;8.00;90.10;;;;;;5039181;28;20175;-86
2021/11/05 03:00:45;;;;;;;27.37;18.63;;;8.00;90.00;;;;;;5039040;28;20203;-87
2021/11/05 03:03:15;;;;;;;26.30;19.60;;;7.90;90.10;;;;;;5057052;28;20246;-87
2021/11/05 03:05:41;;;;;;;22.53;17.43;;;7.90;90.00;;;;;;5038649;28;20689;-87
2021/11/05 03:08:07;;;;;;;28.73;17.63;;;7.80;90.10;;;;;;5039295;28;20662;-87
2021/11/05 03:10:34;;;;;;;24.17;17.20;;;7.70;90.20;;;;;;5056721;28;20643;-87
2021/11/05 03:13:00;;;;;;;25.37;16.87;;;7.60;90.30;;;;;;5038506;28;20168;-87
2021/11/05 03:15:26;;;;;;;25.30;16.30;;;7.50;90.40;;;;;;5056617;28;20226;-87
2021/11/05 03:17:53;;;;;;;22.80;17.00;;;7.40;90.70;;;;;;5056427;28;20160;-87
2021/11/05 03:20:20;;;;;;;24.13;17.30;;;7.40;90.80;;;;;;5038427;28;20270;-87
2021/11/05 03:22:47;;;;;;;30.30;18.30;;;7.40;91.00;;;;;;5038263;28;20176;-87
2021/11/05 03:25:13;;;;;;;24.30;17.13;;;7.40;91.10;;;;;;5037966;28;20223;-87
2021/11/05 03:27:40;;;;;;;27.70;18.37;;;7.50;91.30;;;;;;5038160;28;20196;-87
2021/11/05 03:30:09;;;;;;;30.37;18.40;;;7.50;91.50;;;;;;5038576;28;20672;-87
2021/11/05 03:32:36;;;;;;;24.80;18.87;;;7.50;91.80;;;;;;5038764;28;20310;-87
2021/11/05 03:35:04;;;;;;;26.23;19.57;;;7.50;91.80;;;;;;5038948;28;20176;-87
2021/11/05 03:37:30;;;;;;;31.77;19.13;;;7.50;92.00;;;;;;5038193;28;20680;-87
2021/11/05 03:39:55;;;;;;;26.50;18.13;;;7.50;92.00;;;;;;5038182;28;20656;-87
2021/11/05 03:42:21;;;;;;;28.53;19.33;;;7.40;92.20;;;;;;5038307;28;20172;-87
2021/11/05 03:44:47;;;;;;;28.20;18.50;;;7.50;92.30;;;;;;5037720;28;20196;-87
2021/11/05 03:47:12;;;;;;;32.33;19.57;;;7.50;92.30;;;;;;5055921;28;20192;-87
2021/11/05 03:49:38;;;;;;;31.33;18.60;;;7.50;92.40;;;;;;5037783;28;20172;-87
2021/11/05 03:52:04;;;;;;;29.30;18.97;;;7.50;92.50;;;;;;5055102;28;20168;-87
2021/11/05 03:54:30;;;;;;;29.47;19.07;;;7.60;92.50;;;;;;5055904;28;20203;-87
2021/11/05 03:56:55;;;;;;;34.70;18.67;;;7.60;92.60;;;;;;5037524;28;20204;-87
2021/11/05 03:59:21;;;;;;;30.63;19.37;;;7.60;92.60;;;;;;5038043;28;20215;-87
2021/11/05 04:01:47;;;;;;;34.37;20.50;;;7.60;92.80;;;;;;5038001;28;20190;-87
2021/11/05 04:04:13;;;;;;;32.47;19.43;;;7.70;92.90;;;;;;5037844;28;20199;-87
2021/11/05 04:06:39;;;;;;;36.10;19.60;;;7.70;93.00;;;;;;5038539;28;20196;-86
2021/11/05 04:09:05;;;;;;;29.20;19.83;;;7.80;92.90;;;;;;5038052;28;20176;-87
2021/11/05 04:11:30;;;;;;;31.53;18.67;;;7.80;92.70;;;;;;5037793;28;20222;-87
2021/11/05 04:13:56;;;;;;;39.10;19.27;;;7.80;92.60;;;;;;5055687;28;20267;-87
2021/11/05 04:16:22;;;;;;;29.77;18.63;;;7.80;92.40;;;;;;5055740;28;20274;-87
2021/11/05 04:18:48;;;;;;;27.57;18.80;;;7.80;92.40;;;;;;5055448;28;20636;-87
2021/11/05 04:21:14;;;;;;;28.97;18.30;;;7.80;92.40;;;;;;5038222;28;20542;-87
2021/11/05 04:23:39;;;;;;;30.13;19.03;;;7.80;92.40;;;;;;5037587;28;20226;-87
2021/11/05 04:26:05;;;;;;;38.10;19.17;;;7.80;92.40;;;;;;5037005;28;20203;-87
2021/11/05 04:28:32;;;;;;;26.50;18.10;;;7.80;92.50;;;;;;5055238;28;20172;-87
2021/11/05 04:30:58;;;;;;;25.37;17.87;;;7.80;92.50;;;;;;5055251;28;20571;-87
2021/11/05 04:33:24;;;;;;;30.67;19.03;;;7.80;92.50;;;;;;5055470;28;20172;-87
2021/11/05 04:35:50;;;;;;;29.60;19.10;;;7.80;92.60;;;;;;5054920;28;20199;-87
2021/11/05 04:38:16;;;;;;;29.40;18.17;;;7.70;92.70;;;;;;5055278;28;20542;-87
2021/11/05 04:40:42;;;;;;;29.70;19.77;;;7.80;92.80;;;;;;5055458;28;20176;-87
2021/11/05 04:43:08;;;;;;;31.03;18.67;;;7.80;92.80;;;;;;5055341;28;20172;-87
2021/11/05 04:45:34;;;;;;;31.43;19.50;;;7.80;92.90;;;;;;5037335;28;20211;-87
2021/11/05 04:48:00;;;;;;;29.23;20.87;;;7.70;92.90;;;;;;5037707;28;20175;-87
2021/11/05 04:50:26;;;;;;;36.60;20.20;;;7.70;92.90;;;;;;5055514;28;20176;-87
2021/11/05 04:52:52;;;;;;;34.83;20.10;;;7.70;92.90;;;;;;5055305;28;20180;-87
2021/11/05 04:55:19;;;;;;;33.17;18.93;;;7.70;93.00;;;;;;5055366;28;20229;-87
2021/11/05 04:57:46;;;;;;;38.63;21.47;;;7.70;93.00;;;;;;5037629;28;20179;-87
2021/11/05 05:00:14;;;;;;;29.93;20.10;;;7.70;93.00;;;;;;5037987;28;20184;-86
2021/11/05 05:02:40;;;;;;;26.83;18.90;;;7.70;93.00;;;;;;5037909;28;20183;-87
2021/11/05 05:05:06;;;;;;;31.77;19.00;;;7.70;93.00;;;;;;5037477;28;20668;-87
2021/11/05 05:07:32;;;;;;;35.50;20.40;;;7.60;92.90;;;;;;5037319;28;20200;-87
2021/11/05 05:09:58;;;;;;;39.17;19.53;;;7.60;92.90;;;;;;5037647;28;20176;-87
2021/11/05 05:12:24;;;;;;;26.13;17.93;;;7.50;92.90;;;;;;5037217;28;20567;-87
2021/11/05 05:14:50;;;;;;;33.20;18.83;;;7.40;92.90;;;;;;5037569;28;20172;-87
2021/11/05 05:17:16;;;;;;;27.97;18.40;;;7.40;92.90;;;;;;5107106;22;20234;-92
2021/11/05 05:19:41;;;;;;;37.17;18.33;;;7.40;93.00;;;;;;5056793;28;20262;-91
2021/11/05 05:22:08;;;;;;;35.23;19.30;;;7.30;93.00;;;;;;5056866;28;20263;-91
2021/11/05 05:24:35;;;;;;;32.10;20.07;;;7.30;93.10;;;;;;5074698;28;20187;-91
2021/11/05 05:27:00;;;;;;;32.30;19.43;;;7.20;93.20;;;;;;5075286;28;20240;-91
2021/11/05 05:29:26;;;;;;;37.07;18.70;;;7.30;93.30;;;;;;5060601;28;20172;-91
2021/11/05 05:31:52;;;;;;;33.00;18.33;;;7.30;93.30;;;;;;5060489;28;20179;-91
2021/11/05 05:34:17;;;;;;;31.40;18.40;;;7.30;93.30;;;;;;5060374;28;20224;-90
2021/11/05 05:36:44;;;;;;;28.40;18.43;;;7.30;93.40;;;;;;5060624;28;20340;-91
2021/11/05 05:39:09;;;;;;;28.10;18.20;;;7.30;93.30;;;;;;5060938;28;20674;-91
2021/11/05 05:41:35;;;;;;;33.50;19.37;;;7.20;93.20;;;;;;5060533;28;20197;-90
2021/11/05 05:44:01;;;;;;;31.67;18.60;;;7.20;93.30;;;;;;5060685;28;20577;-91
2021/11/05 05:46:27;;;;;;;28.37;18.63;;;7.20;93.40;;;;;;5059879;28;20227;-91
2021/11/05 05:48:52;;;;;;;26.97;19.80;;;7.20;93.40;;;;;;5060028;28;20228;-91
2021/11/05 05:51:18;;;;;;;41.47;18.43;;;7.20;93.50;;;;;;5060303;28;20254;-91
2021/11/05 05:53:44;;;;;;;33.20;17.43;;;7.20;93.60;;;;;;5060207;28;20650;-91
2021/11/05 05:56:10;;;;;;;28.77;18.77;;;7.20;93.60;;;;;;5059700;28;20199;-91
2021/11/05 05:58:35;;;;;;;28.33;17.63;;;7.20;93.70;;;;;;5060016;28;20252;-90
2021/11/05 06:01:02;;;;;;;31.30;18.10;;;7.20;93.70;;;;;;5060240;28;20274;-91
2021/11/05 06:03:27;;;;;;;32.13;17.20;;;7.20;93.80;;;;;;5060309;28;20693;-90
2021/11/05 06:05:53;;;;;;;35.30;18.27;;;7.30;93.90;;;;;;5059664;28;20187;-91
2021/11/05 06:08:19;;;;;;;27.43;17.43;;;7.30;93.80;;;;;;5059438;28;20182;-90
2021/11/05 06:10:44;;;;;;;33.07;16.23;;;7.30;93.80;;;;;;5077626;28;20261;-90
2021/11/05 06:13:10;;;;;;;29.63;16.80;;;7.30;93.80;;;;;;5059546;28;20549;-91
2021/11/05 06:15:36;;;;;;;31.67;16.77;;;7.20;93.80;;;;;;5077392;28;20171;-91
2021/11/05 06:18:02;;;;;;;30.03;15.90;;;7.30;93.80;;;;;;5059594;28;20266;-92
2021/11/05 06:20:27;;;;;;;27.73;16.13;;;7.20;93.70;;;;;;5059455;28;20180;-91
2021/11/05 06:22:53;;;;;;;22.47;15.07;;;7.20;93.70;;;;;;5060025;28;20182;-90
2021/11/05 06:25:19;;;;;;;27.33;15.40;;;7.10;93.70;;;;;;5059475;28;20222;-91
2021/11/05 06:27:45;;;;;;;23.43;13.47;;;7.10;93.70;;;;;;5060202;28;20195;-92
2021/11/05 06:30:12;;;;;;;26.40;15.77;;;7.10;93.70;;;;;;5059822;28;20183;-91
2021/11/05 06:32:39;;;;;;;25.47;14.50;;;7.00;93.70;;;;;;5059724;28;20179;-90
2021/11/05 06:35:07;;;;;;;25.73;14.87;;;7.00;93.80;;;;;;5059836;28;20179;-91
2021/11/05 06:37:32;;;;;;;30.03;14.70;;;7.10;93.80;;;;;;5059518;28;20203;-91
2021/11/05 06:39:58;;;;;;;29.73;14.67;;;7.00;93.90;;;;;;5059073;28;20209;-91
2021/11/05 06:42:24;;;;;;;28.30;15.07;;;7.10;93.90;;;;;;5059189;28;20182;-91
2021/11/05 06:44:52;;;;;;;25.23;14.33;;;7.20;94.00;;;;;;5077001;28;20244;-91
2021/11/05 06:47:19;;;;;;;25.90;13.77;;;7.20;94.00;;;;;;5058876;28;20191;-91
2021/11/05 06:49:45;;;;;;;24.67;14.47;;;7.10;94.00;;;;;;5059139;28;20168;-91
2021/11/05 06:52:11;;;;;;;24.93;13.17;;;7.20;94.00;;;;;;5059039;28;20175;-90
2021/11/05 06:54:38;;;;;;;27.23;13.60;;;7.20;94.10;;;;;;5058986;28;20274;-91
2021/11/05 06:57:05;;;;;;;27.07;14.23;;;7.20;94.10;;;;;;5059067;28;20194;-90
2021/11/05 06:59:31;;;;;;;29.83;13.53;;;7.30;94.10;;;;;;5059476;28;20198;-92
2021/11/05 07:01:57;;;;;;;21.80;12.50;;;7.30;94.10;;;;;;5059091;28;20179;-91
2021/11/05 07:04:22;;;;;;;27.73;12.13;;;7.30;94.20;;;;;;5058097;28;20290;-91
2021/11/05 07:06:48;;;;;;;17.70;12.33;;;7.40;94.20;;;;;;5058561;28;20195;-91
2021/11/05 07:09:16;;;;;;;21.27;12.23;;;7.60;94.30;;;;;;5058954;28;20262;-91
2021/11/05 07:11:43;;;;;;;26.93;13.87;;;7.60;94.20;;;;;;5076374;28;20217;-90
2021/11/05 07:14:16;;;;;;;20.27;12.67;;;7.70;94.30;;;;;;5058414;28;20183;-91
2021/11/05 07:16:42;;;;;;;22.27;13.37;;;7.70;94.30;;;;;;5076074;28;20709;-91
2021/11/05 07:19:08;;;;;;;22.23;12.47;;;7.80;94.30;;;;;;5058742;28;20276;-91
2021/11/05 07:21:35;;;;;;;22.53;12.37;;;7.80;94.40;;;;;;5076323;28;20171;-91
2021/11/05 07:24:04;;;;;;;20.63;11.37;;;7.90;94.40;;;;;;5058464;28;20248;-90
2021/11/05 07:26:38;;;;;;;21.70;9.83;;;7.90;94.40;;;;;;5058302;28;20278;-91
2021/11/05 07:29:06;;;;;;;24.53;10.07;;;8.10;94.40;;;;;;5058151;28;20202;-90
2021/11/05 07:31:32;;;;;;;19.27;9.70;;;8.10;94.30;;;;;;5058415;28;20643;-93
2021/11/05 07:33:58;;;;;;;19.83;10.03;;;8.20;94.30;;;;;;5058346;28;20179;-92
2021/11/05 07:36:24;;;;;;;19.63;10.07;;;8.30;94.20;;;;;;5076133;28;20194;-91
2021/11/05 07:38:50;;;;;;;16.37;10.93;;;8.30;94.20;;;;;;5058253;28;20177;-91
2021/11/05 07:41:16;;;;;;;21.07;10.60;;;8.30;94.10;;;;;;5076348;28;20175;-91
2021/11/05 07:43:41;;;;;;;18.13;9.90;;;8.30;94.20;;;;;;5058236;28;20176;-90
2021/11/05 07:46:07;;;;;;;20.20;10.40;;;8.30;94.20;;;;;;5059069;28;20214;-91
2021/11/05 07:48:33;;;;;;;22.23;10.87;;;8.30;94.20;;;;;;5058099;28;20178;-90
2021/11/05 07:50:59;;;;;;;16.80;10.17;;;8.30;94.20;;;;;;5057575;28;20171;-90
2021/11/05 07:53:25;;;;;;;19.07;10.30;;;8.30;94.20;;;;;;5057767;28;20176;-91
2021/11/05 07:55:50;;;;;;;19.20;10.80;;;8.40;94.20;;;;;;5057703;28;20206;-90
2021/11/05 07:58:16;;;;;;;17.20;10.27;;;8.40;94.20;;;;;;5057725;28;20187;-90
2021/11/05 08:00:42;;;;;;;20.50;10.87;;;8.40;94.20;;;;;;5058725;28;20179;-91
2021/11/05 08:03:08;;;;;;;19.30;11.77;;;8.40;94.30;;;;;;5057734;28;20183;-90
2021/11/05 08:05:33;;;;;;;19.03;11.07;;;8.50;94.30;;;;;;5056774;28;20203;-90
2021/11/05 08:07:59;;;;;;;16.57;10.50;;;8.50;94.30;;;;;;5074872;28;20231;-90
2021/11/05 08:10:25;;;;;;;17.63;11.40;;;8.60;94.30;;;;;;5074918;28;20183;-91
2021/11/05 08:12:52;;;;;;;20.53;11.03;;;8.60;94.30;;;;;;5058168;28;20186;-91
2021/11/05 08:15:22;;;;;;;21.80;10.13;;;8.60;94.30;;;;;;5057773;28;20215;-91
2021/11/05 08:17:48;;;;;;;14.97;9.57;;;8.60;94.30;;;;;;5058058;28;20219;-92
2021/11/05 08:20:15;;;;;;;20.13;10.20;;;8.60;94.30;;;;;;5058661;28;20313;-90
2021/11/05 08:22:43;;;;;;;23.83;10.73;;;8.60;94.30;;;;;;5058219;28;20555;-90
2021/11/05 08:25:10;;;;;;;15.77;10.20;;;8.60;94.30;;;;;;5057971;28;20655;-91
2021/11/05 08:27:38;;;;;;;19.87;10.17;;;8.60;94.30;;;;;;5058011;28;20199;-91
2021/11/05 08:30:11;;;;;;;17.90;11.50;;;8.70;94.30;;;;;;5057871;28;20648;-91
2021/11/05 08:32:38;;;;;;;21.73;11.03;;;8.70;94.30;;;;;;5058370;28;20196;-91
2021/11/05 08:35:05;;;;;;;18.57;10.03;;;8.70;94.30;;;;;;5057445;28;20175;-91
2021/11/05 08:37:31;;;;;;;18.73;10.00;;;8.80;94.20;;;;;;5057840;28;20651;-91
2021/11/05 08:39:57;;;;;;;21.50;9.43;;;8.80;94.20;;;;;;5057807;28;20180;-91
2021/11/05 08:42:24;;;;;;;17.57;8.80;;;8.80;94.10;;;;;;5057985;28;20185;-91
2021/11/05 08:44:50;;;;;;;13.80;7.87;;;8.90;94.00;;;;;;5057586;28;20298;-91
2021/11/05 08:47:15;;;;;;;17.80;8.37;;;8.90;93.90;;;;;;5057738;28;20231;-91
2021/11/05 08:49:41;;;;;;;14.53;7.63;;;8.90;93.60;;;;;;5057603;28;20175;-91
2021/11/05 08:52:07;;;;;;;15.83;7.50;;;8.90;93.30;;;;;;5057420;28;20176;-90
2021/11/05 08:54:33;;;;;;;12.30;7.63;;;8.90;93.30;;;;;;5057288;28;20179;-91
2021/11/05 08:56:58;;;;;;;10.43;6.77;;;8.90;93.20;;;;;;5057277;28;20206;-90
2021/11/05 08:59:26;;;;;;;14.87;6.70;;;9.00;93.30;;;;;;5058072;28;20199;-90
2021/11/05 09:01:53;;;;;;;13.63;6.37;;;9.00;93.10;;;;;;5057200;28;20628;-91
2021/11/05 09:04:20;;;;;;;9.20;6.30;;;9.00;92.90;;;;;;5061732;28;20203;-91
2021/11/05 09:06:47;;;;;;;15.43;6.03;;;9.20;93.00;;;;;;5061385;28;20203;-91
2021/11/05 09:09:16;;;;;;;11.20;5.83;;;9.30;93.10;;;;;;5061367;28;20175;-91
2021/11/05 09:11:43;;;;;;;17.07;6.17;;;9.40;92.80;;;;;;5060915;28;20222;-90
2021/11/05 09:14:09;;;;;;;16.27;6.70;;;9.60;92.70;;;;;;5061941;28;20612;-91
2021/11/05 09:16:35;;;;;;;11.30;4.97;;;9.80;92.70;;;;;;5060752;28;20214;-91
2021/11/05 09:19:02;;;;;;;11.83;5.07;;;9.80;92.20;;;;;;5078899;28;20172;-91
2021/11/05 09:21:31;;;;;;;11.40;4.80;;;10.00;92.10;;;;;;5061905;28;20182;-91
2021/11/05 09:23:56;;;;;;;12.30;4.97;;;10.10;91.70;;;;;;5065009;28;20202;-92
2021/11/05 09:26:24;;;;;;;9.33;3.80;;;10.30;91.80;;;;;;5066892;28;20229;-92
2021/11/05 09:28:50;;;;;;;9.20;3.43;;;10.30;91.50;;;;;;5062302;28;20174;-92
2021/11/05 09:31:15;;;;;;;4.23;3.03;;;10.50;91.00;;;;;;5066662;28;20171;-91
2021/11/05 09:33:41;;;;;;;11.50;3.47;;;10.50;90.60;;;;;;5060543;28;20639;-92
2021/11/05 09:36:07;;;;;;;9.67;3.40;;;10.50;90.70;;;;;;5061059;28;20202;-92
2021/11/05 09:38:33;;;;;;;11.77;2.90;;;10.70;90.80;;;;;;5060842;28;20178;-91
2021/11/05 09:40:59;;;;;;;9.37;2.93;;;10.90;90.60;;;;;;5062138;28;20167;-92
2021/11/05 09:43:25;;;;;;;11.70;3.00;;;10.90;89.90;;;;;;5062256;28;20201;-92
2021/11/05 09:45:51;;;;;;;13.80;2.60;;;11.00;89.70;;;;;;5061247;28;20203;-91
2021/11/05 09:48:21;;;;;;;6.90;2.43;;;11.10;89.30;;;;;;5060679;28;20270;-91
2021/11/05 09:50:47;;;;;;;6.67;2.10;;;11.20;89.20;;;;;;5061146;28;20172;-92
2021/11/05 09:53:13;;;;;;;15.63;2.30;;;11.20;88.90;;;;;;5060914;28;20685;-92
2021/11/05 09:55:45;;;;;;;9.90;1.77;;;11.30;89.10;;;;;;5060409;28;20179;-91
2021/11/05 09:58:10;;;;;;;8.43;2.20;;;11.30;88.40;;;;;;5060312;28;20584;-92
2021/11/05 10:00:37;;;;;;;9.27;2.17;;;11.20;88.30;;;;;;5060353;28;20175;-92
2021/11/05 10:03:03;;;;;;;10.73;1.80;;;11.40;88.40;;;;;;5059395;28;20228;-91
2021/11/05 10:05:31;;;;;;;8.60;1.83;;;11.40;87.80;;;;;;5059256;28;20294;-91
2021/11/05 10:08:01;;;;;;;7.67;1.47;;;11.50;88.20;;;;;;5059363;28;20176;-91
2021/11/05 10:10:31;;;;;;;9.87;1.50;;;11.40;86.90;;;;;;5059728;28;20171;-93
2021/11/05 10:13:02;;;;;;;6.40;1.40;;;11.40;87.90;;;;;;5060207;28;20168;-92
2021/11/05 10:15:34;;;;;;;7.73;1.97;;;11.30;87.70;;;;;;5059966;28;20175;-91
2021/11/05 10:18:06;;;;;;;6.80;1.50;;;11.30;87.60;;;;;;5060184;28;20719;-91
2021/11/05 10:20:32;;;;;;;6.93;1.27;;;11.20;87.30;;;;;;5059908;28;20211;-91
2021/11/05 10:23:02;;;;;;;6.27;1.27;;;11.10;86.90;;;;;;5060139;28;20199;-91
2021/11/05 10:25:31;;;;;;;6.27;1.30;;;11.10;87.20;;;;;;5058847;28;20195;-91
2021/11/05 10:28:13;;;;;;;4.37;1.00;;;11.00;86.50;;;;;;5058246;28;20194;-91
2021/11/05 10:31:08;;;;;;;4.77;1.20;;;11.00;86.20;;;;;;5058988;28;20182;-91
2021/11/05 10:33:51;;;;;;;5.50;1.17;;;11.00;86.60;;;;;;5059727;28;20531;-91
2021/11/05 10:36:21;;;;;;;2.93;1.00;;;11.00;86.10;;;;;;5058591;28;20195;-91
2021/11/05 10:39:07;;;;;;;3.77;0.90;;;11.10;86.90;;;;;;5058625;28;20198;-91
2021/11/05 10:41:33;;;;;;;4.60;1.30;;;11.20;86.60;;;;;;5060426;28;20259;-91
2021/11/05 10:44:11;;;;;;;5.83;1.13;;;11.20;86.50;;;;;;5058642;28;20590;-91
2021/11/05 10:46:41;;;;;;;3.20;0.80;;;11.20;85.60;;;;;;5058420;28;20197;-92
2021/11/05 10:49:25;;;;;;;4.37;1.93;;;11.20;86.20;;;;;;5075995;28;20544;-92
2021/11/05 10:51:50;;;;;;;11.63;4.40;;;11.20;86.00;;;;;;5058297;28;20246;-91
2021/11/05 10:54:16;;;;;;;9.27;1.23;;;11.30;86.30;;;;;;5057799;28;20206;-92
2021/11/05 10:56:44;;;;;;;7.00;1.60;;;11.20;86.20;;;;;;5057596;28;20196;-91
2021/11/05 10:59:10;;;;;;;5.33;1.03;;;11.20;85.30;;;;;;5057665;28;20175;-93
2021/11/05 11:01:42;;;;;;;3.07;1.00;;;11.20;85.60;;;;;;5057728;28;20207;-91
2021/11/05 11:04:13;;;;;;;3.27;1.10;;;11.30;85.70;;;;;;5057645;28;20286;-90
2021/11/05 11:06:47;;;;;;;5.40;1.27;;;11.40;86.00;;;;;;5059206;28;20300;-92
2021/11/05 11:09:19;;;;;;;3.43;1.00;;;11.40;86.10;;;;;;5057751;28;20163;-92
2021/11/05 11:11:47;;;;;;;8.87;1.40;;;11.40;85.50;;;;;;5057361;28;20620;-92
2021/11/05 11:14:18;;;;;;;7.50;1.33;;;11.50;84.80;;;;;;5057628;28;20191;-92
2021/11/05 11:16:43;;;;;;;3.83;0.97;;;11.50;85.20;;;;;;5075133;28;20210;-92
2021/11/05 11:19:14;;;;;;;10.70;2.10;;;11.50;84.00;;;;;;5057002;28;20589;-92
2021/11/05 11:21:44;;;;;;;5.33;1.00;;;11.60;83.90;;;;;;5074915;28;20168;-92
2021/11/05 11:24:14;;;;;;;3.50;1.20;;;11.70;84.00;;;;;;5056852;28;20199;-92
2021/11/05 11:26:40;;;;;;;5.33;1.17;;;11.80;84.10;;;;;;5074909;28;20207;-91
2021/11/05 11:29:07;;;;;;;5.43;1.43;;;11.80;83.70;;;;;;5056696;28;20545;-91
2021/11/05 11:31:34;;;;;;;5.03;1.10;;;11.80;83.10;;;;;;5056521;28;20179;-93
2021/11/05 11:34:03;;;;;;;3.77;0.93;;;11.70;81.90;;;;;;5056550;28;20171;-92
2021/11/05 11:36:31;;;;;;;7.13;1.23;;;11.70;79.90;;;;;;5056480;28;20202;-92
2021/11/05 11:38:57;;;;;;;4.07;0.90;;;11.70;80.40;;;;;;5056558;28;20172;-91
2021/11/05 11:41:23;;;;;;;3.67;0.83;;;11.70;79.20;;;;;;5056831;28;20258;-91
2021/11/05 11:43:53;;;;;;;7.37;1.03;;;11.70;79.90;;;;;;5056720;28;20179;-91
2021/11/05 11:46:19;;;;;;;4.93;1.10;;;11.70;80.00;;;;;;5056328;28;20579;-92
2021/11/05 11:48:51;;;;;;;2.37;1.50;;;11.50;79.80;;;;;;5056280;28;20175;-91
2021/11/05 11:51:33;;;;;;;2.30;0.70;;;11.50;81.50;;;;;;5057059;28;20171;-92
2021/11/05 11:54:18;;;;;;;2.97;0.90;;;11.50;81.10;;;;;;5056515;28;20176;-92
2021/11/05 11:56:43;;;;;;;3.93;1.00;;;11.40;81.50;;;;;;5056200;28;20286;-93
2021/11/05 11:59:15;;;;;;;3.57;0.70;;;11.40;81.60;;;;;;5056524;28;20697;-93
2021/11/05 12:01:45;;;;;;;3.50;1.00;;;11.40;82.30;;;;;;5056393;28;20168;-93
2021/11/05 12:04:17;;;;;;;1.07;0.60;;;11.40;82.00;;;;;;5056108;28;20245;-92
2021/11/05 12:06:46;;;;;;;3.10;1.20;;;11.40;82.10;;;;;;5055959;28;20187;-91
2021/11/05 12:09:23;;;;;;;3.70;0.73;;;11.40;82.30;;;;;;5073706;28;20170;-91
2021/11/05 12:11:50;;;;;;;4.57;0.80;;;11.30;81.80;;;;;;5055808;28;20234;-93
2021/11/05 12:14:16;;;;;;;3.90;0.80;;;11.30;82.30;;;;;;5055796;28;20190;-92
2021/11/05 12:17:01;;;;;;;5.10;0.80;;;11.50;81.50;;;;;;5055722;28;20218;-91
2021/11/05 12:19:37;;;;;;;2.83;0.80;;;11.80;80.70;;;;;;5056410;28;20265;-91
2021/11/05 12:22:10;;;;;;;5.03;1.03;;;12.00;80.90;;;;;;5055798;28;20166;-92
2021/11/05 12:24:36;;;;;;;3.80;1.00;;;12.20;80.00;;;;;;5056015;28;20198;-92
2021/11/05 12:27:08;;;;;;;2.70;0.90;;;12.30;79.50;;;;;;5055564;28;20203;-92
2021/11/05 12:29:34;;;;;;;4.93;1.10;;;12.20;80.10;;;;;;5056586;28;20635;-91
2021/11/05 12:32:18;;;;;;;5.77;1.00;;;12.30;79.60;;;;;;5055700;28;20178;-92
2021/11/05 12:34:56;;;;;;;4.93;1.00;;;12.60;81.20;;;;;;5055697;28;20175;-91
2021/11/05 12:37:42;;;;;;;1.27;0.70;;;12.50;79.60;;;;;;5055588;28;20220;-92
2021/11/05 12:40:45;;;;;;;4.83;1.20;;;12.50;78.90;;;;;;5055442;28;20240;-92
2021/11/05 12:43:22;;;;;;;3.80;0.90;;;12.50;80.80;;;;;;5056292;28;20220;-91